sensor_id;sensor_type;location;lat;lon;timestamp;P1;durP1;ratioP1;P2;durP2;ratioP2
47089;SDS011;32840;52.516;13.294;2023-03-04T00:01:22;48.63;;;23.65;;
47089;SDS011;32840;52.516;13.294;2023-03-04T00:04:07;49.17;;;22.83;;
47089;SDS011;32840;52.516;13.294;2023-03-04T00:06:54;51.03;;;23.02;;
47089;SDS011;32840;52.516;13.294;2023-03-04T00:09:40;43.67;;;21.17;;
47089;SDS011;32840;52.516;13.294;2023-03-04T00:12:24;47.90;;;23.52;;
47089;SDS011;32840;52.516;13.294;2023-03-04T00:15:09;48.17;;;23.20;;
47089;SDS011;32840;52.516;13.294;2023-03-04T00:17:54;51.28;;;22.48;;
47089;SDS011;32840;52.516;13.294;2023-03-04T00:20:39;49.28;;;22.70;;
47089;SDS011;32840;52.516;13.294;2023-03-04T00:23:24;46.60;;;21.88;;
47089;SDS011;32840;52.516;13.294;2023-03-04T00:26:09;49.25;;;22.75;;
47089;SDS011;32840;52.516;13.294;2023-03-04T00:28:56;60.28;;;22.35;;
47089;SDS011;32840;52.516;13.294;2023-03-04T00:31:41;47.00;;;22.25;;
47089;SDS011;32840;52.516;13.294;2023-03-04T00:34:29;42.22;;;20.08;;
47089;SDS011;32840;52.516;13.294;2023-03-04T00:37:14;48.25;;;21.52;;
47089;SDS011;32840;52.516;13.294;2023-03-04T00:40:00;40.92;;;19.88;;
47089;SDS011;32840;52.516;13.294;2023-03-04T00:42:45;42.05;;;20.38;;
47089;SDS011;32840;52.516;13.294;2023-03-04T00:45:31;44.60;;;21.13;;
47089;SDS011;32840;52.516;13.294;2023-03-04T00:48:17;43.25;;;18.67;;
47089;SDS011;32840;52.516;13.294;2023-03-04T00:51:04;39.13;;;18.50;;
47089;SDS011;32840;52.516;13.294;2023-03-04T00:53:48;45.10;;;20.88;;
47089;SDS011;32840;52.516;13.294;2023-03-04T00:56:35;43.67;;;19.13;;
47089;SDS011;32840;52.516;13.294;2023-03-04T00:59:20;45.10;;;19.60;;
47089;SDS011;32840;52.516;13.294;2023-03-04T01:02:05;42.45;;;19.13;;
47089;SDS011;32840;52.516;13.294;2023-03-04T01:04:50;36.28;;;16.85;;
47089;SDS011;32840;52.516;13.294;2023-03-04T01:07:36;38.08;;;17.90;;
47089;SDS011;32840;52.516;13.294;2023-03-04T01:10:22;40.80;;;18.17;;
47089;SDS011;32840;52.516;13.294;2023-03-04T01:13:08;40.50;;;16.55;;
47089;SDS011;32840;52.516;13.294;2023-03-04T01:15:53;36.05;;;16.50;;
47089;SDS011;32840;52.516;13.294;2023-03-04T01:18:38;44.38;;;16.17;;
47089;SDS011;32840;52.516;13.294;2023-03-04T01:21:23;40.05;;;16.48;;
47089;SDS011;32840;52.516;13.294;2023-03-04T01:24:08;34.80;;;14.82;;
47089;SDS011;32840;52.516;13.294;2023-03-04T01:26:54;33.83;;;14.00;;
47089;SDS011;32840;52.516;13.294;2023-03-04T01:29:39;34.88;;;13.38;;
47089;SDS011;32840;52.516;13.294;2023-03-04T01:32:25;31.25;;;13.00;;
47089;SDS011;32840;52.516;13.294;2023-03-04T01:35:09;38.80;;;13.18;;
47089;SDS011;32840;52.516;13.294;2023-03-04T01:37:54;31.48;;;12.30;;
47089;SDS011;32840;52.516;13.294;2023-03-04T01:40:39;31.52;;;11.63;;
47089;SDS011;32840;52.516;13.294;2023-03-04T01:43:26;31.48;;;11.90;;
47089;SDS011;32840;52.516;13.294;2023-03-04T01:46:13;33.53;;;11.95;;
47089;SDS011;32840;52.516;13.294;2023-03-04T01:48:59;28.05;;;11.68;;
47089;SDS011;32840;52.516;13.294;2023-03-04T01:51:46;27.13;;;10.73;;
47089;SDS011;32840;52.516;13.294;2023-03-04T01:54:35;28.60;;;11.38;;
47089;SDS011;32840;52.516;13.294;2023-03-04T01:57:21;29.70;;;10.50;;
47089;SDS011;32840;52.516;13.294;2023-03-04T02:00:18;24.70;;;10.85;;
47089;SDS011;32840;52.516;13.294;2023-03-04T02:03:15;28.48;;;9.85;;
47089;SDS011;32840;52.516;13.294;2023-03-04T02:06:03;34.30;;;11.00;;
47089;SDS011;32840;52.516;13.294;2023-03-04T02:08:47;32.55;;;10.00;;
47089;SDS011;32840;52.516;13.294;2023-03-04T02:11:33;34.35;;;10.18;;
47089;SDS011;32840;52.516;13.294;2023-03-04T02:14:19;30.10;;;9.77;;
47089;SDS011;32840;52.516;13.294;2023-03-04T02:17:09;27.23;;;9.15;;
47089;SDS011;32840;52.516;13.294;2023-03-04T02:19:58;27.95;;;9.30;;
47089;SDS011;32840;52.516;13.294;2023-03-04T02:23:56;25.67;;;9.20;;
47089;SDS011;32840;52.516;13.294;2023-03-04T02:26:22;33.35;;;8.77;;
47089;SDS011;32840;52.516;13.294;2023-03-04T02:29:10;28.65;;;8.20;;
47089;SDS011;32840;52.516;13.294;2023-03-04T02:31:57;24.00;;;8.27;;
47089;SDS011;32840;52.516;13.294;2023-03-04T02:34:47;32.30;;;8.98;;
47089;SDS011;32840;52.516;13.294;2023-03-04T02:37:33;25.33;;;7.50;;
47089;SDS011;32840;52.516;13.294;2023-03-04T02:40:21;22.05;;;8.00;;
47089;SDS011;32840;52.516;13.294;2023-03-04T02:43:10;22.83;;;8.52;;
47089;SDS011;32840;52.516;13.294;2023-03-04T02:45:55;24.45;;;8.85;;
47089;SDS011;32840;52.516;13.294;2023-03-04T02:48:40;26.95;;;8.93;;
47089;SDS011;32840;52.516;13.294;2023-03-04T02:51:26;24.98;;;8.38;;
47089;SDS011;32840;52.516;13.294;2023-03-04T02:54:15;26.00;;;7.93;;
47089;SDS011;32840;52.516;13.294;2023-03-04T02:57:06;20.52;;;7.03;;
47089;SDS011;32840;52.516;13.294;2023-03-04T02:59:52;29.10;;;8.05;;
47089;SDS011;32840;52.516;13.294;2023-03-04T03:02:39;28.48;;;6.93;;
47089;SDS011;32840;52.516;13.294;2023-03-04T03:05:24;24.70;;;7.78;;
47089;SDS011;32840;52.516;13.294;2023-03-04T03:08:12;29.67;;;7.68;;
47089;SDS011;32840;52.516;13.294;2023-03-04T03:10:57;24.05;;;7.57;;
47089;SDS011;32840;52.516;13.294;2023-03-04T03:13:42;33.78;;;8.02;;
47089;SDS011;32840;52.516;13.294;2023-03-04T03:16:26;27.55;;;8.27;;
47089;SDS011;32840;52.516;13.294;2023-03-04T03:19:12;28.15;;;7.97;;
47089;SDS011;32840;52.516;13.294;2023-03-04T03:21:57;23.80;;;7.18;;
47089;SDS011;32840;52.516;13.294;2023-03-04T03:24:42;23.83;;;7.63;;
47089;SDS011;32840;52.516;13.294;2023-03-04T03:27:27;26.17;;;7.00;;
47089;SDS011;32840;52.516;13.294;2023-03-04T03:30:13;24.35;;;7.60;;
47089;SDS011;32840;52.516;13.294;2023-03-04T03:32:58;24.15;;;7.95;;
47089;SDS011;32840;52.516;13.294;2023-03-04T03:35:43;25.77;;;8.00;;
47089;SDS011;32840;52.516;13.294;2023-03-04T03:38:28;25.13;;;7.20;;
47089;SDS011;32840;52.516;13.294;2023-03-04T03:41:13;19.63;;;7.00;;
47089;SDS011;32840;52.516;13.294;2023-03-04T03:43:58;20.70;;;6.75;;
47089;SDS011;32840;52.516;13.294;2023-03-04T03:46:42;19.55;;;6.35;;
47089;SDS011;32840;52.516;13.294;2023-03-04T03:49:28;19.98;;;6.35;;
47089;SDS011;32840;52.516;13.294;2023-03-04T03:52:13;19.23;;;6.10;;
47089;SDS011;32840;52.516;13.294;2023-03-04T03:54:58;25.95;;;6.43;;
47089;SDS011;32840;52.516;13.294;2023-03-04T03:57:47;21.38;;;5.93;;
47089;SDS011;32840;52.516;13.294;2023-03-04T04:00:32;24.73;;;6.20;;
47089;SDS011;32840;52.516;13.294;2023-03-04T04:03:17;24.52;;;6.75;;
47089;SDS011;32840;52.516;13.294;2023-03-04T04:06:02;24.40;;;5.88;;
47089;SDS011;32840;52.516;13.294;2023-03-04T04:08:47;30.13;;;7.00;;
47089;SDS011;32840;52.516;13.294;2023-03-04T04:11:33;23.85;;;6.15;;
47089;SDS011;32840;52.516;13.294;2023-03-04T04:14:18;21.00;;;6.93;;
47089;SDS011;32840;52.516;13.294;2023-03-04T04:17:03;22.45;;;6.90;;
47089;SDS011;32840;52.516;13.294;2023-03-04T04:19:48;20.55;;;5.40;;
47089;SDS011;32840;52.516;13.294;2023-03-04T04:22:33;17.00;;;6.53;;
47089;SDS011;32840;52.516;13.294;2023-03-04T04:25:20;20.92;;;6.05;;
47089;SDS011;32840;52.516;13.294;2023-03-04T04:28:05;22.67;;;6.25;;
47089;SDS011;32840;52.516;13.294;2023-03-04T04:30:52;29.08;;;6.10;;
47089;SDS011;32840;52.516;13.294;2023-03-04T04:33:40;17.55;;;6.15;;
47089;SDS011;32840;52.516;13.294;2023-03-04T04:36:25;21.35;;;6.20;;
47089;SDS011;32840;52.516;13.294;2023-03-04T04:39:11;22.25;;;5.97;;
47089;SDS011;32840;52.516;13.294;2023-03-04T04:41:56;26.20;;;6.93;;
47089;SDS011;32840;52.516;13.294;2023-03-04T04:44:40;21.23;;;5.95;;
47089;SDS011;32840;52.516;13.294;2023-03-04T04:47:25;22.60;;;6.15;;
47089;SDS011;32840;52.516;13.294;2023-03-04T04:50:10;21.95;;;6.47;;
47089;SDS011;32840;52.516;13.294;2023-03-04T04:52:56;23.33;;;7.22;;
47089;SDS011;32840;52.516;13.294;2023-03-04T04:55:40;24.17;;;6.68;;
47089;SDS011;32840;52.516;13.294;2023-03-04T04:58:25;19.10;;;5.70;;
47089;SDS011;32840;52.516;13.294;2023-03-04T05:01:10;17.75;;;5.47;;
47089;SDS011;32840;52.516;13.294;2023-03-04T05:03:55;21.83;;;5.93;;
47089;SDS011;32840;52.516;13.294;2023-03-04T05:06:41;20.15;;;6.10;;
47089;SDS011;32840;52.516;13.294;2023-03-04T05:09:28;31.45;;;6.47;;
47089;SDS011;32840;52.516;13.294;2023-03-04T05:12:14;22.00;;;5.60;;
47089;SDS011;32840;52.516;13.294;2023-03-04T05:14:59;17.17;;;5.60;;
47089;SDS011;32840;52.516;13.294;2023-03-04T05:17:44;17.92;;;5.68;;
47089;SDS011;32840;52.516;13.294;2023-03-04T05:20:29;15.23;;;4.82;;
47089;SDS011;32840;52.516;13.294;2023-03-04T05:23:14;19.63;;;4.97;;
47089;SDS011;32840;52.516;13.294;2023-03-04T05:25:59;19.45;;;5.40;;
47089;SDS011;32840;52.516;13.294;2023-03-04T05:28:44;19.83;;;5.10;;
47089;SDS011;32840;52.516;13.294;2023-03-04T05:31:30;14.88;;;5.00;;
47089;SDS011;32840;52.516;13.294;2023-03-04T05:34:15;21.95;;;5.97;;
47089;SDS011;32840;52.516;13.294;2023-03-04T05:36:59;13.98;;;4.90;;
47089;SDS011;32840;52.516;13.294;2023-03-04T05:39:44;19.42;;;5.03;;
47089;SDS011;32840;52.516;13.294;2023-03-04T05:42:29;15.18;;;4.53;;
47089;SDS011;32840;52.516;13.294;2023-03-04T05:45:14;22.45;;;4.40;;
47089;SDS011;32840;52.516;13.294;2023-03-04T05:47:58;16.52;;;3.97;;
47089;SDS011;32840;52.516;13.294;2023-03-04T05:50:43;14.48;;;4.53;;
47089;SDS011;32840;52.516;13.294;2023-03-04T05:53:28;17.52;;;3.72;;
47089;SDS011;32840;52.516;13.294;2023-03-04T05:56:14;14.73;;;4.38;;
47089;SDS011;32840;52.516;13.294;2023-03-04T05:59:04;13.23;;;3.93;;
47089;SDS011;32840;52.516;13.294;2023-03-04T06:01:49;17.30;;;3.90;;
47089;SDS011;32840;52.516;13.294;2023-03-04T06:04:35;19.05;;;5.38;;
47089;SDS011;32840;52.516;13.294;2023-03-04T06:07:29;15.85;;;4.13;;
47089;SDS011;32840;52.516;13.294;2023-03-04T06:10:17;19.30;;;4.00;;
47089;SDS011;32840;52.516;13.294;2023-03-04T06:13:02;13.57;;;3.90;;
47089;SDS011;32840;52.516;13.294;2023-03-04T06:15:52;17.58;;;4.32;;
47089;SDS011;32840;52.516;13.294;2023-03-04T06:18:38;18.92;;;4.43;;
47089;SDS011;32840;52.516;13.294;2023-03-04T06:21:23;17.23;;;3.50;;
47089;SDS011;32840;52.516;13.294;2023-03-04T06:24:07;11.90;;;3.47;;
47089;SDS011;32840;52.516;13.294;2023-03-04T06:26:52;13.18;;;3.17;;
47089;SDS011;32840;52.516;13.294;2023-03-04T06:29:37;12.95;;;3.78;;
47089;SDS011;32840;52.516;13.294;2023-03-04T06:32:23;11.27;;;3.83;;
47089;SDS011;32840;52.516;13.294;2023-03-04T06:35:08;13.10;;;3.72;;
47089;SDS011;32840;52.516;13.294;2023-03-04T06:37:53;10.70;;;3.35;;
47089;SDS011;32840;52.516;13.294;2023-03-04T06:40:38;14.95;;;4.03;;
47089;SDS011;32840;52.516;13.294;2023-03-04T06:43:23;13.27;;;4.10;;
47089;SDS011;32840;52.516;13.294;2023-03-04T06:46:09;10.65;;;3.45;;
47089;SDS011;32840;52.516;13.294;2023-03-04T06:48:54;14.27;;;3.80;;
47089;SDS011;32840;52.516;13.294;2023-03-04T06:51:39;13.32;;;4.07;;
47089;SDS011;32840;52.516;13.294;2023-03-04T06:54:24;15.32;;;3.47;;
47089;SDS011;32840;52.516;13.294;2023-03-04T06:57:10;18.10;;;3.85;;
47089;SDS011;32840;52.516;13.294;2023-03-04T06:59:56;11.73;;;3.28;;
47089;SDS011;32840;52.516;13.294;2023-03-04T07:02:42;14.52;;;3.78;;
47089;SDS011;32840;52.516;13.294;2023-03-04T07:05:27;10.68;;;3.17;;
47089;SDS011;32840;52.516;13.294;2023-03-04T07:08:12;12.68;;;3.50;;
47089;SDS011;32840;52.516;13.294;2023-03-04T07:10:57;12.82;;;3.10;;
47089;SDS011;32840;52.516;13.294;2023-03-04T07:13:43;10.77;;;3.65;;
47089;SDS011;32840;52.516;13.294;2023-03-04T07:16:28;14.90;;;4.07;;
47089;SDS011;32840;52.516;13.294;2023-03-04T07:19:12;12.55;;;3.63;;
47089;SDS011;32840;52.516;13.294;2023-03-04T07:21:59;41.05;;;17.10;;
47089;SDS011;32840;52.516;13.294;2023-03-04T07:24:44;16.23;;;6.65;;
47089;SDS011;32840;52.516;13.294;2023-03-04T07:27:31;13.38;;;5.93;;
47089;SDS011;32840;52.516;13.294;2023-03-04T07:30:16;14.20;;;5.97;;
47089;SDS011;32840;52.516;13.294;2023-03-04T07:33:01;12.48;;;4.28;;
47089;SDS011;32840;52.516;13.294;2023-03-04T07:35:46;15.82;;;7.47;;
47089;SDS011;32840;52.516;13.294;2023-03-04T07:38:32;11.02;;;4.07;;
47089;SDS011;32840;52.516;13.294;2023-03-04T07:41:17;8.25;;;3.25;;
47089;SDS011;32840;52.516;13.294;2023-03-04T07:44:03;15.40;;;4.13;;
47089;SDS011;32840;52.516;13.294;2023-03-04T07:46:49;10.30;;;3.33;;
47089;SDS011;32840;52.516;13.294;2023-03-04T07:49:34;9.65;;;3.50;;
47089;SDS011;32840;52.516;13.294;2023-03-04T07:52:19;7.53;;;3.10;;
47089;SDS011;32840;52.516;13.294;2023-03-04T07:55:05;10.18;;;3.13;;
47089;SDS011;32840;52.516;13.294;2023-03-04T07:57:51;15.52;;;6.57;;
47089;SDS011;32840;52.516;13.294;2023-03-04T08:00:36;10.10;;;4.38;;
47089;SDS011;32840;52.516;13.294;2023-03-04T08:03:21;12.57;;;3.35;;
47089;SDS011;32840;52.516;13.294;2023-03-04T08:06:06;8.85;;;3.83;;
47089;SDS011;32840;52.516;13.294;2023-03-04T08:08:56;10.30;;;3.05;;
47089;SDS011;32840;52.516;13.294;2023-03-04T08:11:42;8.55;;;3.60;;
47089;SDS011;32840;52.516;13.294;2023-03-04T08:14:27;8.13;;;3.90;;
47089;SDS011;32840;52.516;13.294;2023-03-04T08:17:12;19.77;;;10.00;;
47089;SDS011;32840;52.516;13.294;2023-03-04T08:19:58;14.85;;;7.78;;
47089;SDS011;32840;52.516;13.294;2023-03-04T08:22:43;6.88;;;2.55;;
47089;SDS011;32840;52.516;13.294;2023-03-04T08:25:29;9.05;;;3.05;;
47089;SDS011;32840;52.516;13.294;2023-03-04T08:28:14;13.25;;;3.70;;
47089;SDS011;32840;52.516;13.294;2023-03-04T08:30:59;5.65;;;2.10;;
47089;SDS011;32840;52.516;13.294;2023-03-04T08:33:44;10.18;;;3.40;;
47089;SDS011;32840;52.516;13.294;2023-03-04T08:36:31;10.07;;;3.38;;
47089;SDS011;32840;52.516;13.294;2023-03-04T08:39:16;12.43;;;3.30;;
47089;SDS011;32840;52.516;13.294;2023-03-04T08:42:02;11.43;;;3.65;;
47089;SDS011;32840;52.516;13.294;2023-03-04T08:44:47;12.75;;;3.17;;
47089;SDS011;32840;52.516;13.294;2023-03-04T08:47:32;11.10;;;4.30;;
47089;SDS011;32840;52.516;13.294;2023-03-04T08:50:17;8.10;;;2.75;;
47089;SDS011;32840;52.516;13.294;2023-03-04T08:53:02;10.25;;;4.68;;
47089;SDS011;32840;52.516;13.294;2023-03-04T08:55:48;12.15;;;3.60;;
47089;SDS011;32840;52.516;13.294;2023-03-04T08:58:35;13.05;;;4.65;;
47089;SDS011;32840;52.516;13.294;2023-03-04T09:01:19;13.13;;;4.50;;
47089;SDS011;32840;52.516;13.294;2023-03-04T09:04:06;10.32;;;3.10;;
47089;SDS011;32840;52.516;13.294;2023-03-04T09:06:50;14.27;;;4.97;;
47089;SDS011;32840;52.516;13.294;2023-03-04T09:09:36;9.60;;;3.00;;
47089;SDS011;32840;52.516;13.294;2023-03-04T09:12:22;12.75;;;3.90;;
47089;SDS011;32840;52.516;13.294;2023-03-04T09:15:07;9.07;;;2.95;;
47089;SDS011;32840;52.516;13.294;2023-03-04T09:17:52;14.02;;;6.60;;
47089;SDS011;32840;52.516;13.294;2023-03-04T09:20:38;12.02;;;5.18;;
47089;SDS011;32840;52.516;13.294;2023-03-04T09:23:24;13.10;;;5.47;;
47089;SDS011;32840;52.516;13.294;2023-03-04T09:26:14;8.98;;;2.72;;
47089;SDS011;32840;52.516;13.294;2023-03-04T09:29:05;10.27;;;2.28;;
47089;SDS011;32840;52.516;13.294;2023-03-04T09:31:50;9.88;;;4.20;;
47089;SDS011;32840;52.516;13.294;2023-03-04T09:34:38;10.23;;;2.47;;
47089;SDS011;32840;52.516;13.294;2023-03-04T09:37:22;10.43;;;2.20;;
47089;SDS011;32840;52.516;13.294;2023-03-04T09:40:10;9.50;;;2.80;;
47089;SDS011;32840;52.516;13.294;2023-03-04T09:43:02;10.73;;;3.03;;
47089;SDS011;32840;52.516;13.294;2023-03-04T09:45:50;12.65;;;4.20;;
47089;SDS011;32840;52.516;13.294;2023-03-04T09:48:43;7.65;;;2.15;;
47089;SDS011;32840;52.516;13.294;2023-03-04T09:51:36;7.60;;;2.45;;
47089;SDS011;32840;52.516;13.294;2023-03-04T10:00:44;7.15;;;2.00;;
47089;SDS011;32840;52.516;13.294;2023-03-04T10:03:52;11.18;;;2.50;;
47089;SDS011;32840;52.516;13.294;2023-03-04T10:06:41;12.05;;;3.00;;
47089;SDS011;32840;52.516;13.294;2023-03-04T10:09:46;13.07;;;2.60;;
47089;SDS011;32840;52.516;13.294;2023-03-04T10:12:38;13.40;;;3.50;;
47089;SDS011;32840;52.516;13.294;2023-03-04T10:15:32;15.68;;;3.30;;
47089;SDS011;32840;52.516;13.294;2023-03-04T10:18:26;12.00;;;3.08;;
47089;SDS011;32840;52.516;13.294;2023-03-04T10:21:20;13.75;;;2.78;;
47089;SDS011;32840;52.516;13.294;2023-03-04T10:24:14;16.70;;;3.35;;
47089;SDS011;32840;52.516;13.294;2023-03-04T10:27:02;13.88;;;2.63;;
47089;SDS011;32840;52.516;13.294;2023-03-04T10:29:50;14.93;;;3.03;;
47089;SDS011;32840;52.516;13.294;2023-03-04T10:32:34;9.65;;;2.50;;
47089;SDS011;32840;52.516;13.294;2023-03-04T10:35:20;36.92;;;17.85;;
47089;SDS011;32840;52.516;13.294;2023-03-04T10:38:09;15.13;;;3.42;;
47089;SDS011;32840;52.516;13.294;2023-03-04T10:40:57;9.95;;;2.78;;
47089;SDS011;32840;52.516;13.294;2023-03-04T10:43:42;18.85;;;3.58;;
47089;SDS011;32840;52.516;13.294;2023-03-04T10:46:36;17.20;;;3.55;;
47089;SDS011;32840;52.516;13.294;2023-03-04T10:49:22;16.05;;;2.45;;
47089;SDS011;32840;52.516;13.294;2023-03-04T10:52:18;13.48;;;2.85;;
47089;SDS011;32840;52.516;13.294;2023-03-04T10:55:19;21.13;;;4.22;;
47089;SDS011;32840;52.516;13.294;2023-03-04T10:58:06;17.33;;;3.80;;
47089;SDS011;32840;52.516;13.294;2023-03-04T11:00:58;12.52;;;2.72;;
47089;SDS011;32840;52.516;13.294;2023-03-04T11:03:49;15.75;;;3.72;;
47089;SDS011;32840;52.516;13.294;2023-03-04T11:06:38;15.80;;;3.58;;
47089;SDS011;32840;52.516;13.294;2023-03-04T11:09:26;22.92;;;3.63;;
47089;SDS011;32840;52.516;13.294;2023-03-04T11:12:15;15.98;;;3.70;;
47089;SDS011;32840;52.516;13.294;2023-03-04T11:15:08;14.85;;;2.83;;
47089;SDS011;32840;52.516;13.294;2023-03-04T11:18:11;16.67;;;3.75;;
47089;SDS011;32840;52.516;13.294;2023-03-04T11:21:01;14.27;;;3.33;;
47089;SDS011;32840;52.516;13.294;2023-03-04T11:23:48;14.27;;;3.25;;
47089;SDS011;32840;52.516;13.294;2023-03-04T11:26:45;16.35;;;3.40;;
47089;SDS011;32840;52.516;13.294;2023-03-04T11:32:42;12.65;;;3.25;;
47089;SDS011;32840;52.516;13.294;2023-03-04T11:35:32;21.83;;;4.80;;
47089;SDS011;32840;52.516;13.294;2023-03-04T11:38:36;22.45;;;4.15;;
47089;SDS011;32840;52.516;13.294;2023-03-04T11:41:27;21.02;;;4.22;;
47089;SDS011;32840;52.516;13.294;2023-03-04T11:44:24;19.05;;;3.50;;
47089;SDS011;32840;52.516;13.294;2023-03-04T11:56:27;20.77;;;8.00;;
47089;SDS011;32840;52.516;13.294;2023-03-04T12:02:37;16.92;;;4.00;;
47089;SDS011;32840;52.516;13.294;2023-03-04T12:05:42;21.73;;;4.53;;
47089;SDS011;32840;52.516;13.294;2023-03-04T12:17:58;21.33;;;5.53;;
47089;SDS011;32840;52.516;13.294;2023-03-04T12:21:15;19.63;;;3.85;;
47089;SDS011;32840;52.516;13.294;2023-03-04T12:24:27;19.45;;;3.22;;
47089;SDS011;32840;52.516;13.294;2023-03-04T12:27:39;18.02;;;3.20;;
47089;SDS011;32840;52.516;13.294;2023-03-04T12:56:36;18.52;;;3.38;;
47089;SDS011;32840;52.516;13.294;2023-03-04T12:59:27;15.65;;;3.47;;
47089;SDS011;32840;52.516;13.294;2023-03-04T13:05:50;16.80;;;2.65;;
47089;SDS011;32840;52.516;13.294;2023-03-04T13:09:10;15.95;;;3.65;;
47089;SDS011;32840;52.516;13.294;2023-03-04T13:12:13;17.67;;;3.40;;
47089;SDS011;32840;52.516;13.294;2023-03-04T13:17:51;24.25;;;4.30;;
47089;SDS011;32840;52.516;13.294;2023-03-04T13:20:39;17.52;;;3.22;;
47089;SDS011;32840;52.516;13.294;2023-03-04T13:23:27;13.18;;;3.17;;
47089;SDS011;32840;52.516;13.294;2023-03-04T13:29:10;16.23;;;3.10;;
47089;SDS011;32840;52.516;13.294;2023-03-04T13:32:24;15.10;;;2.97;;
47089;SDS011;32840;52.516;13.294;2023-03-04T13:44:31;14.18;;;2.95;;
47089;SDS011;32840;52.516;13.294;2023-03-04T13:47:15;15.18;;;3.13;;
47089;SDS011;32840;52.516;13.294;2023-03-04T13:50:22;14.10;;;3.03;;
47089;SDS011;32840;52.516;13.294;2023-03-04T13:56:26;11.20;;;3.00;;
47089;SDS011;32840;52.516;13.294;2023-03-04T13:59:24;17.25;;;2.92;;
47089;SDS011;32840;52.516;13.294;2023-03-04T14:02:19;20.90;;;3.63;;
47089;SDS011;32840;52.516;13.294;2023-03-04T14:06:24;19.17;;;3.53;;
47089;SDS011;32840;52.516;13.294;2023-03-04T14:09:14;12.75;;;3.38;;
47089;SDS011;32840;52.516;13.294;2023-03-04T14:12:03;20.67;;;5.82;;
47089;SDS011;32840;52.516;13.294;2023-03-04T14:14:59;19.27;;;3.97;;
47089;SDS011;32840;52.516;13.294;2023-03-04T14:17:57;28.88;;;9.18;;
47089;SDS011;32840;52.516;13.294;2023-03-04T14:20:47;16.20;;;3.85;;
47089;SDS011;32840;52.516;13.294;2023-03-04T14:23:33;15.07;;;3.53;;
47089;SDS011;32840;52.516;13.294;2023-03-04T14:26:19;14.93;;;3.40;;
47089;SDS011;32840;52.516;13.294;2023-03-04T14:29:17;16.85;;;3.38;;
47089;SDS011;32840;52.516;13.294;2023-03-04T14:32:04;24.03;;;3.93;;
47089;SDS011;32840;52.516;13.294;2023-03-04T14:34:50;22.52;;;4.95;;
47089;SDS011;32840;52.516;13.294;2023-03-04T14:37:41;17.40;;;3.35;;
47089;SDS011;32840;52.516;13.294;2023-03-04T14:40:37;18.80;;;4.28;;
47089;SDS011;32840;52.516;13.294;2023-03-04T14:43:27;16.80;;;3.63;;
47089;SDS011;32840;52.516;13.294;2023-03-04T14:46:14;19.42;;;4.20;;
47089;SDS011;32840;52.516;13.294;2023-03-04T14:49:02;23.20;;;3.60;;
47089;SDS011;32840;52.516;13.294;2023-03-04T14:51:51;18.15;;;4.20;;
47089;SDS011;32840;52.516;13.294;2023-03-04T14:54:38;24.55;;;7.38;;
47089;SDS011;32840;52.516;13.294;2023-03-04T14:57:33;14.70;;;2.85;;
47089;SDS011;32840;52.516;13.294;2023-03-04T15:03:14;19.63;;;4.00;;
47089;SDS011;32840;52.516;13.294;2023-03-04T15:06:26;19.90;;;3.83;;
47089;SDS011;32840;52.516;13.294;2023-03-04T15:09:21;22.20;;;5.43;;
47089;SDS011;32840;52.516;13.294;2023-03-04T15:12:08;20.50;;;4.07;;
47089;SDS011;32840;52.516;13.294;2023-03-04T15:14:57;14.95;;;3.35;;
47089;SDS011;32840;52.516;13.294;2023-03-04T15:17:44;17.48;;;5.18;;
47089;SDS011;32840;52.516;13.294;2023-03-04T15:20:30;15.43;;;3.30;;
47089;SDS011;32840;52.516;13.294;2023-03-04T15:23:15;23.10;;;3.50;;
47089;SDS011;32840;52.516;13.294;2023-03-04T15:26:01;17.92;;;3.80;;
47089;SDS011;32840;52.516;13.294;2023-03-04T15:28:48;16.88;;;3.97;;
47089;SDS011;32840;52.516;13.294;2023-03-04T15:31:33;15.38;;;3.40;;
47089;SDS011;32840;52.516;13.294;2023-03-04T15:34:18;18.88;;;4.47;;
47089;SDS011;32840;52.516;13.294;2023-03-04T15:37:04;18.20;;;4.10;;
47089;SDS011;32840;52.516;13.294;2023-03-04T15:39:49;20.50;;;4.07;;
47089;SDS011;32840;52.516;13.294;2023-03-04T15:42:34;18.65;;;3.33;;
47089;SDS011;32840;52.516;13.294;2023-03-04T15:45:29;21.05;;;4.57;;
47089;SDS011;32840;52.516;13.294;2023-03-04T15:48:19;18.30;;;3.80;;
47089;SDS011;32840;52.516;13.294;2023-03-04T15:51:06;16.27;;;3.65;;
47089;SDS011;32840;52.516;13.294;2023-03-04T15:53:59;21.25;;;4.68;;
47089;SDS011;32840;52.516;13.294;2023-03-04T15:56:44;23.65;;;4.57;;
47089;SDS011;32840;52.516;13.294;2023-03-04T15:59:29;21.63;;;4.00;;
